createdAt,value
2019-03-12T00:00:28.404Z,4.20
2019-03-12T00:01:28.353Z,3.80
2019-03-12T00:02:28.301Z,4.40
2019-03-12T00:03:28.258Z,3.90
2019-03-12T00:04:28.201Z,3.80
2019-03-12T00:05:28.151Z,3.90
2019-03-12T00:06:28.107Z,3.80
2019-03-12T00:07:28.054Z,3.90
2019-03-12T00:08:28.003Z,4.20
2019-03-12T00:09:27.956Z,4.80
2019-03-12T00:10:27.903Z,3.90
2019-03-12T00:11:27.862Z,4.20
2019-03-12T00:12:27.806Z,4.10
2019-03-12T00:13:27.753Z,3.80
2019-03-12T00:14:27.713Z,4.00
2019-03-12T00:15:27.653Z,4.10
2019-03-12T00:16:27.610Z,4.00
2019-03-12T00:17:27.555Z,5.20
2019-03-12T00:18:28.658Z,4.80
2019-03-12T00:19:27.456Z,4.80
2019-03-12T00:20:27.403Z,4.70
2019-03-12T00:21:27.354Z,4.80
2019-03-12T00:22:27.303Z,5.50
2019-03-12T00:23:27.255Z,5.10
2019-03-12T00:24:27.202Z,4.90
2019-03-12T00:25:27.160Z,5.50
2019-03-12T00:26:27.102Z,5.00
2019-03-12T00:27:27.055Z,5.40
2019-03-12T00:28:26.999Z,5.50
2019-03-12T00:29:26.951Z,4.90
2019-03-12T00:30:26.901Z,5.20
2019-03-12T00:31:26.848Z,5.40
2019-03-12T00:32:26.799Z,5.60
2019-03-12T00:33:26.749Z,4.90
2019-03-12T00:34:26.700Z,5.20
2019-03-12T00:35:26.648Z,5.50
2019-03-12T00:36:26.598Z,5.00
2019-03-12T00:37:26.550Z,5.60
2019-03-12T00:38:26.499Z,5.10
2019-03-12T00:39:26.447Z,5.40
2019-03-12T00:40:26.400Z,5.20
2019-03-12T00:41:26.348Z,5.30
2019-03-12T00:42:26.301Z,5.40
2019-03-12T00:43:26.249Z,5.50
2019-03-12T00:44:26.203Z,5.20
2019-03-12T00:45:26.145Z,5.70
2019-03-12T00:46:27.226Z,5.20
2019-03-12T00:47:26.049Z,5.10
2019-03-12T00:48:25.996Z,5.40
2019-03-12T00:49:25.946Z,5.10
2019-03-12T00:50:25.898Z,5.40
2019-03-12T00:51:25.848Z,5.70
2019-03-12T00:52:25.800Z,5.30
2019-03-12T00:53:25.747Z,5.80
2019-03-12T00:54:25.696Z,5.70
2019-03-12T00:55:25.643Z,6.00
2019-03-12T00:56:25.595Z,5.30
2019-03-12T00:57:25.543Z,5.80
2019-03-12T00:58:25.494Z,6.60
2019-03-12T00:59:25.442Z,6.30
2019-03-12T01:00:25.413Z,6.10
2019-03-12T01:01:25.351Z,6.20
2019-03-12T01:02:25.292Z,5.40
2019-03-12T01:03:25.246Z,6.00
2019-03-12T01:04:25.194Z,6.40
2019-03-12T01:05:25.143Z,7.20
2019-03-12T01:06:25.094Z,7.00
2019-03-12T01:07:25.041Z,7.10
2019-03-12T01:08:24.998Z,6.40
2019-03-12T01:09:24.943Z,7.10
2019-03-12T01:10:24.891Z,7.50
2019-03-12T01:11:24.842Z,7.60
2019-03-12T01:12:24.793Z,7.00
2019-03-12T01:13:24.740Z,6.40
2019-03-12T01:14:24.693Z,7.50
2019-03-12T01:15:24.641Z,7.20
2019-03-12T01:16:24.590Z,7.10
2019-03-12T01:17:24.539Z,7.10
2019-03-12T01:18:24.490Z,6.60
2019-03-12T01:19:24.439Z,7.20
2019-03-12T01:20:24.390Z,6.50
2019-03-12T01:21:24.340Z,6.60
2019-03-12T01:22:24.293Z,5.80
2019-03-12T01:23:24.238Z,6.60
2019-03-12T01:24:24.187Z,6.70
2019-03-12T01:25:24.141Z,6.60
2019-03-12T01:26:24.087Z,6.80
2019-03-12T01:27:24.036Z,6.80
2019-03-12T01:28:23.987Z,7.00
2019-03-12T01:29:23.936Z,6.70
2019-03-12T01:30:23.889Z,6.90
2019-03-12T01:31:23.843Z,6.50
2019-03-12T01:32:23.788Z,6.20
2019-03-12T01:33:23.739Z,6.10
2019-03-12T01:34:23.736Z,6.80
2019-03-12T01:35:23.636Z,6.30
2019-03-12T01:36:23.586Z,6.00
2019-03-12T01:37:23.532Z,6.60
2019-03-12T01:38:23.484Z,6.20
2019-03-12T01:39:23.431Z,6.30
2019-03-12T01:40:23.381Z,6.80
2019-03-12T01:41:23.331Z,6.30
2019-03-12T01:42:23.284Z,6.90
2019-03-12T01:43:23.232Z,7.30
2019-03-12T01:44:23.182Z,6.60
2019-03-12T01:45:23.131Z,6.70
2019-03-12T01:46:23.082Z,7.50
2019-03-12T01:47:23.030Z,6.70
2019-03-12T01:48:22.982Z,6.60
2019-03-12T01:49:22.929Z,6.90
2019-03-12T01:50:22.879Z,7.20
2019-03-12T01:51:22.831Z,6.80
2019-03-12T01:52:22.778Z,7.60
2019-03-12T01:53:22.730Z,6.80
2019-03-12T01:54:22.684Z,6.60
2019-03-12T01:55:22.630Z,7.40
2019-03-12T01:56:22.579Z,7.40
2019-03-12T01:57:22.530Z,7.10
2019-03-12T01:58:22.474Z,7.00
2019-03-12T01:59:22.433Z,7.10
2019-03-12T02:00:22.391Z,6.80
2019-03-12T02:01:22.324Z,6.60
2019-03-12T02:02:22.283Z,6.90
2019-03-12T02:03:22.228Z,6.20
2019-03-12T02:04:22.174Z,6.80
2019-03-12T02:05:22.123Z,6.30
2019-03-12T02:06:22.075Z,6.40
2019-03-12T02:07:22.021Z,6.80
2019-03-12T02:08:21.971Z,7.40
2019-03-12T02:09:21.927Z,6.80
2019-03-12T02:10:21.875Z,6.50
2019-03-12T02:11:21.824Z,7.10
2019-03-12T02:12:21.771Z,7.00
2019-03-12T02:13:21.723Z,6.40
2019-03-12T02:14:21.676Z,6.90
2019-03-12T02:15:21.623Z,6.30
2019-03-12T02:16:21.570Z,6.70
2019-03-12T02:17:21.522Z,7.00
2019-03-12T02:18:21.499Z,6.90
2019-03-12T02:19:21.420Z,7.40
2019-03-12T02:20:21.373Z,7.80
2019-03-12T02:21:21.322Z,6.90
2019-03-12T02:22:21.267Z,7.60
2019-03-12T02:23:21.217Z,7.20
2019-03-12T02:24:21.167Z,7.10
2019-03-12T02:25:21.116Z,6.60
2019-03-12T02:26:21.073Z,6.70
2019-03-12T02:27:21.017Z,6.60
2019-03-12T02:28:20.968Z,6.80
2019-03-12T02:29:20.919Z,7.10
2019-03-12T02:30:20.869Z,7.80
2019-03-12T02:31:20.817Z,7.10
2019-03-12T02:32:20.777Z,7.10
2019-03-12T02:33:20.719Z,7.30
2019-03-12T02:34:20.712Z,7.00
2019-03-12T02:35:20.619Z,7.10
2019-03-12T02:36:20.562Z,7.00
2019-03-12T02:37:20.511Z,7.20
2019-03-12T02:38:20.464Z,6.70
2019-03-12T02:39:20.421Z,7.30
2019-03-12T02:40:20.365Z,7.30
2019-03-12T02:41:20.312Z,6.60
2019-03-12T02:42:20.264Z,7.00
2019-03-12T02:43:20.223Z,6.80
2019-03-12T02:44:20.161Z,7.60
2019-03-12T02:45:20.114Z,6.80
2019-03-12T02:46:20.078Z,6.90
2019-03-12T02:47:20.010Z,6.90
2019-03-12T02:48:19.960Z,7.20
2019-03-12T02:49:19.911Z,7.00
2019-03-12T02:50:19.868Z,7.00
2019-03-12T02:51:19.816Z,6.80
2019-03-12T02:52:19.757Z,6.90
2019-03-12T02:53:19.706Z,6.90
2019-03-12T02:54:19.667Z,6.90
2019-03-12T02:55:19.617Z,6.90
2019-03-12T02:56:19.560Z,7.90
2019-03-12T02:57:19.506Z,7.00
2019-03-12T02:58:19.459Z,7.30
2019-03-12T02:59:19.405Z,6.80
2019-03-12T03:00:19.354Z,6.90
2019-03-12T03:01:19.303Z,7.10
2019-03-12T03:02:19.264Z,7.10
2019-03-12T03:03:19.204Z,6.60
2019-03-12T03:04:19.153Z,6.50
2019-03-12T03:05:19.104Z,6.70
2019-03-12T03:06:19.055Z,6.50
2019-03-12T03:07:19.008Z,7.10
2019-03-12T03:08:18.955Z,7.40
2019-03-12T03:09:18.930Z,7.80
2019-03-12T03:10:18.856Z,7.10
2019-03-12T03:11:18.812Z,6.60
2019-03-12T03:12:18.754Z,6.70
2019-03-12T03:13:18.698Z,6.20
2019-03-12T03:14:18.672Z,6.60
2019-03-12T03:15:18.602Z,6.80
2019-03-12T03:16:18.555Z,6.70
2019-03-12T03:17:18.504Z,6.30
2019-03-12T03:18:18.448Z,6.40
2019-03-12T03:19:18.399Z,6.90
2019-03-12T03:20:18.348Z,6.60
2019-03-12T03:21:18.299Z,6.40
2019-03-12T03:22:18.248Z,6.90
2019-03-12T03:23:18.201Z,6.50
2019-03-12T03:24:18.146Z,6.30
2019-03-12T03:25:18.096Z,6.70
2019-03-12T03:26:18.049Z,6.40
2019-03-12T03:27:17.993Z,6.20
2019-03-12T03:28:17.951Z,6.30
2019-03-12T03:29:17.896Z,6.70
2019-03-12T03:30:17.854Z,5.90
2019-03-12T03:31:17.800Z,6.40
2019-03-12T03:32:17.747Z,6.50
2019-03-12T03:33:17.761Z,6.80
2019-03-12T03:34:17.725Z,5.80
2019-03-12T03:35:17.669Z,6.70
2019-03-12T03:36:17.547Z,6.10
2019-03-12T03:37:17.495Z,6.30
2019-03-12T03:38:17.442Z,5.90
2019-03-12T03:39:17.406Z,5.80
2019-03-12T03:40:17.350Z,6.60
2019-03-12T03:41:17.290Z,6.00
2019-03-12T03:42:17.239Z,5.80
2019-03-12T03:43:17.207Z,6.60
2019-03-12T03:44:17.137Z,5.90
2019-03-12T03:45:17.092Z,6.00
2019-03-12T03:46:17.042Z,6.00
2019-03-12T03:47:19.951Z,6.10
2019-03-12T03:48:16.948Z,6.10
2019-03-12T03:49:16.891Z,5.80
2019-03-12T03:50:16.843Z,6.00
2019-03-12T03:51:16.785Z,5.90
2019-03-12T03:52:16.733Z,6.40
2019-03-12T03:53:16.691Z,6.70
2019-03-12T03:54:16.640Z,6.10
2019-03-12T03:55:16.605Z,5.90
2019-03-12T03:56:16.532Z,5.90
2019-03-12T03:57:16.494Z,6.00
2019-03-12T03:58:16.433Z,5.60
2019-03-12T03:59:16.451Z,5.70
2019-03-12T04:00:16.331Z,5.60
2019-03-12T04:01:16.290Z,5.60
2019-03-12T04:02:16.232Z,5.40
2019-03-12T04:03:16.189Z,5.50
2019-03-12T04:04:16.131Z,6.10
2019-03-12T04:05:16.079Z,5.30
2019-03-12T04:06:16.029Z,5.50
2019-03-12T04:07:15.980Z,5.30
2019-03-12T04:08:15.931Z,5.20
2019-03-12T04:09:15.881Z,5.10
2019-03-12T04:10:15.826Z,5.30
2019-03-12T04:11:15.777Z,5.20
2019-03-12T04:12:15.732Z,5.20
2019-03-12T04:13:15.716Z,5.40
2019-03-12T04:14:15.625Z,5.40
2019-03-12T04:15:15.582Z,5.40
2019-03-12T04:16:15.537Z,5.00
2019-03-12T04:17:15.475Z,5.40
2019-03-12T04:18:15.424Z,5.00
2019-03-12T04:19:15.374Z,5.30
2019-03-12T04:20:15.323Z,4.90
2019-03-12T04:21:15.274Z,5.30
2019-03-12T04:22:15.259Z,5.30
2019-03-12T04:23:16.223Z,4.90
2019-03-12T04:24:15.121Z,5.10
2019-03-12T04:25:15.071Z,5.50
2019-03-12T04:26:15.023Z,4.90
2019-03-12T04:27:14.976Z,5.10
2019-03-12T04:28:14.921Z,5.20
2019-03-12T04:29:14.872Z,5.30
2019-03-12T04:30:14.817Z,5.40
2019-03-12T04:31:14.771Z,5.00
2019-03-12T04:32:14.719Z,5.00
2019-03-12T04:33:14.669Z,5.70
2019-03-12T04:34:14.617Z,4.70
2019-03-12T04:35:14.567Z,4.90
2019-03-12T04:36:14.513Z,5.40
2019-03-12T04:37:14.498Z,5.20
2019-03-12T04:38:14.413Z,5.20
2019-03-12T04:39:14.367Z,4.80
2019-03-12T04:40:14.316Z,5.60
2019-03-12T04:41:14.263Z,5.20
2019-03-12T04:42:14.213Z,4.80
2019-03-12T04:43:14.162Z,5.40
2019-03-12T04:44:14.113Z,5.30
2019-03-12T04:45:14.076Z,5.20
2019-03-12T04:46:14.011Z,5.40
2019-03-12T04:47:13.965Z,5.40
2019-03-12T04:48:13.911Z,5.20
2019-03-12T04:49:13.861Z,4.70
2019-03-12T04:50:13.808Z,4.90
2019-03-12T04:51:13.757Z,4.60
2019-03-12T04:52:13.711Z,5.50
2019-03-12T04:53:13.659Z,4.90
2019-03-12T04:54:13.612Z,4.80
2019-03-12T04:55:13.554Z,5.70
2019-03-12T04:56:13.504Z,5.30
2019-03-12T04:57:13.456Z,5.10
2019-03-12T04:58:13.408Z,4.80
2019-03-12T04:59:13.356Z,5.30
2019-03-12T05:00:13.422Z,5.10
2019-03-12T05:01:13.254Z,5.00
2019-03-12T05:02:13.208Z,4.50
2019-03-12T05:03:13.155Z,5.10
2019-03-12T05:04:13.104Z,5.20
2019-03-12T05:05:13.052Z,5.10
2019-03-12T05:06:13.008Z,4.90
2019-03-12T05:07:12.950Z,4.90
2019-03-12T05:08:12.906Z,4.90
2019-03-12T05:09:12.854Z,4.50
2019-03-12T05:10:12.802Z,4.90
2019-03-12T05:11:12.749Z,4.80
2019-03-12T05:12:12.704Z,5.00
2019-03-12T05:13:12.651Z,5.90
2019-03-12T05:14:12.607Z,4.50
2019-03-12T05:15:12.592Z,4.40
2019-03-12T05:16:12.499Z,4.50
2019-03-12T05:17:12.449Z,4.90
2019-03-12T05:18:12.401Z,4.40
2019-03-12T05:19:12.346Z,4.80
2019-03-12T05:20:12.299Z,4.90
2019-03-12T05:21:12.246Z,4.80
2019-03-12T05:22:12.196Z,4.70
2019-03-12T05:23:12.148Z,4.60
2019-03-12T05:24:12.098Z,4.70
2019-03-12T05:25:12.046Z,5.40
2019-03-12T05:26:11.994Z,4.70
2019-03-12T05:27:11.948Z,4.40
2019-03-12T05:28:11.895Z,4.10
2019-03-12T05:29:11.842Z,4.50
2019-03-12T05:30:11.798Z,4.60
2019-03-12T05:31:11.741Z,4.20
2019-03-12T05:32:11.692Z,4.50
2019-03-12T05:33:11.641Z,4.90
2019-03-12T05:34:11.595Z,4.30
2019-03-12T05:35:11.543Z,4.90
2019-03-12T05:36:11.492Z,5.20
2019-03-12T05:37:11.439Z,4.50
2019-03-12T05:38:11.412Z,4.10
2019-03-12T05:39:11.339Z,4.50
2019-03-12T05:40:11.294Z,4.40
2019-03-12T05:41:12.270Z,4.50
2019-03-12T05:42:11.189Z,4.20
2019-03-12T05:43:11.138Z,4.80
2019-03-12T05:44:11.123Z,4.40
2019-03-12T05:45:11.039Z,4.30
2019-03-12T05:46:10.988Z,4.20
2019-03-12T05:47:10.939Z,4.90
2019-03-12T05:48:10.886Z,4.70
2019-03-12T05:49:10.838Z,5.20
2019-03-12T05:50:10.793Z,4.60
2019-03-12T05:51:10.737Z,4.70
2019-03-12T05:52:10.687Z,4.60
2019-03-12T05:53:10.639Z,4.50
2019-03-12T05:54:10.587Z,4.30
2019-03-12T05:55:10.536Z,5.40
2019-03-12T05:56:10.487Z,4.30
2019-03-12T05:57:10.441Z,5.10
2019-03-12T05:58:10.389Z,4.60
2019-03-12T05:59:10.336Z,4.50
2019-03-12T06:00:10.288Z,5.00
2019-03-12T06:01:10.239Z,4.50
2019-03-12T06:02:10.187Z,4.30
2019-03-12T06:03:10.139Z,5.30
2019-03-12T06:04:10.085Z,4.70
2019-03-12T06:05:10.036Z,4.80
2019-03-12T06:06:09.991Z,4.40
2019-03-12T06:07:09.936Z,4.10
2019-03-12T06:08:09.887Z,4.20
2019-03-12T06:09:09.842Z,4.50
2019-03-12T06:10:09.793Z,5.10
2019-03-12T06:11:09.738Z,4.50
2019-03-12T06:12:09.696Z,4.10
2019-03-12T06:13:09.643Z,4.60
2019-03-12T06:14:09.596Z,4.10
2019-03-12T06:15:09.537Z,4.00
2019-03-12T06:16:09.490Z,4.70
2019-03-12T06:17:09.435Z,4.20
2019-03-12T06:18:09.391Z,4.20
2019-03-12T06:19:09.335Z,4.80
2019-03-12T06:20:09.290Z,4.90
2019-03-12T06:21:09.243Z,4.10
2019-03-12T06:22:11.711Z,4.30
2019-03-12T06:23:09.140Z,4.70
2019-03-12T06:24:09.085Z,4.40
2019-03-12T06:25:09.043Z,4.30
2019-03-12T06:26:08.984Z,4.50
2019-03-12T06:27:08.939Z,4.60
2019-03-12T06:28:08.887Z,4.10
2019-03-12T06:29:08.837Z,4.10
2019-03-12T06:30:08.786Z,4.60
2019-03-12T06:31:08.737Z,4.10
2019-03-12T06:32:08.688Z,4.10
2019-03-12T06:33:08.634Z,4.40
2019-03-12T06:34:08.582Z,4.70
2019-03-12T06:35:08.534Z,4.50
2019-03-12T06:36:08.484Z,4.20
2019-03-12T06:37:08.436Z,3.80
2019-03-12T06:38:08.387Z,4.30
2019-03-12T06:39:08.337Z,4.70
2019-03-12T06:40:08.282Z,4.50
2019-03-12T06:41:08.238Z,4.60
2019-03-12T06:42:08.305Z,4.60
2019-03-12T06:43:08.135Z,4.20
2019-03-12T06:44:08.087Z,4.50
2019-03-12T06:45:08.035Z,4.40
2019-03-12T06:46:07.983Z,4.00
2019-03-12T06:47:07.941Z,4.90
2019-03-12T06:48:07.884Z,4.60
2019-03-12T06:49:07.834Z,4.50
2019-03-12T06:50:07.786Z,4.50
2019-03-12T06:51:07.736Z,4.30
2019-03-12T06:52:07.689Z,4.50
2019-03-12T06:53:07.634Z,4.50
2019-03-12T06:54:07.586Z,4.60
2019-03-12T06:55:07.534Z,4.10
2019-03-12T06:56:07.488Z,4.40
2019-03-12T06:57:07.437Z,4.00
2019-03-12T06:58:07.385Z,4.30
2019-03-12T06:59:07.335Z,4.70
2019-03-12T07:00:07.289Z,4.90
2019-03-12T07:01:08.277Z,4.50
2019-03-12T07:02:07.187Z,4.40
2019-03-12T07:03:07.137Z,4.60
2019-03-12T07:04:07.087Z,4.70
2019-03-12T07:05:07.037Z,4.20
2019-03-12T07:06:06.987Z,4.50
2019-03-12T07:07:11.250Z,4.00
2019-03-12T07:08:06.889Z,4.10
2019-03-12T07:09:06.841Z,4.50
2019-03-12T07:10:06.792Z,4.20
2019-03-12T07:11:06.738Z,4.30
2019-03-12T07:12:06.686Z,4.70
2019-03-12T07:13:06.643Z,4.70
2019-03-12T07:14:06.590Z,4.90
2019-03-12T07:15:06.540Z,4.30
2019-03-12T07:16:06.489Z,4.50
2019-03-12T07:17:06.446Z,5.20
2019-03-12T07:18:06.393Z,5.00
2019-03-12T07:19:06.340Z,4.60
2019-03-12T07:20:06.314Z,4.40
2019-03-12T07:21:06.241Z,4.20
2019-03-12T07:22:06.192Z,4.60
2019-03-12T07:23:06.149Z,4.80
2019-03-12T07:24:06.090Z,4.40
2019-03-12T07:25:06.044Z,5.20
2019-03-12T07:26:05.994Z,4.70
2019-03-12T07:27:05.942Z,5.30
2019-03-12T07:28:05.898Z,5.40
2019-03-12T07:29:05.845Z,5.40
2019-03-12T07:30:05.797Z,4.70
2019-03-12T07:31:05.756Z,5.20
2019-03-12T07:32:05.694Z,5.00
2019-03-12T07:33:05.686Z,4.00
2019-03-12T07:34:05.696Z,4.70
2019-03-12T07:35:05.547Z,4.40
2019-03-12T07:36:05.505Z,4.70
2019-03-12T07:37:05.447Z,4.40
2019-03-12T07:38:05.483Z,4.40
2019-03-12T07:39:05.408Z,4.70
2019-03-12T07:40:05.323Z,4.10
2019-03-12T07:41:05.259Z,5.00
2019-03-12T07:42:05.226Z,4.90
2019-03-12T07:43:05.183Z,5.10
2019-03-12T07:44:05.126Z,5.60
2019-03-12T07:45:05.070Z,4.80
2019-03-12T07:46:05.021Z,5.30
2019-03-12T07:47:04.982Z,5.20
2019-03-12T07:48:04.921Z,4.90
2019-03-12T07:49:04.858Z,4.90
2019-03-12T07:50:04.812Z,4.60
2019-03-12T07:51:04.761Z,4.50
2019-03-12T07:52:04.706Z,4.90
2019-03-12T07:53:04.656Z,4.60
2019-03-12T07:54:04.609Z,5.10
2019-03-12T07:55:04.556Z,5.00
2019-03-12T07:56:04.511Z,4.70
2019-03-12T07:57:04.464Z,4.30
2019-03-12T07:58:04.410Z,4.70
2019-03-12T07:59:04.359Z,4.70
2019-03-12T08:00:04.311Z,4.50
2019-03-12T08:01:04.261Z,4.20
2019-03-12T08:02:04.216Z,4.50
2019-03-12T08:03:04.162Z,4.50
2019-03-12T08:04:04.116Z,4.40
2019-03-12T08:05:04.064Z,4.30
2019-03-12T08:06:04.019Z,3.90
2019-03-12T08:07:03.964Z,4.20
2019-03-12T08:08:03.918Z,4.30
2019-03-12T08:09:03.867Z,4.10
2019-03-12T08:10:03.824Z,4.30
2019-03-12T08:11:03.785Z,3.90
2019-03-12T08:12:03.720Z,4.20
2019-03-12T08:13:03.681Z,4.30
2019-03-12T08:14:03.621Z,4.20
2019-03-12T08:15:03.570Z,4.00
2019-03-12T08:16:03.524Z,4.50
2019-03-12T08:17:03.473Z,4.10
2019-03-12T08:18:03.430Z,4.10
2019-03-12T08:19:03.373Z,4.00
2019-03-12T08:20:03.330Z,4.30
2019-03-12T08:21:03.282Z,4.50
2019-03-12T08:22:03.332Z,4.20
2019-03-12T08:23:03.179Z,4.20
2019-03-12T08:24:03.149Z,4.10
2019-03-12T08:25:03.079Z,4.00
2019-03-12T08:26:03.034Z,3.60
2019-03-12T08:27:02.979Z,4.00
2019-03-12T08:28:02.930Z,3.70
2019-03-12T08:29:02.883Z,4.10
2019-03-12T08:30:02.835Z,4.00
2019-03-12T08:31:02.783Z,4.30
2019-03-12T08:32:02.735Z,3.90
2019-03-12T08:33:02.696Z,4.10
2019-03-12T08:34:02.640Z,3.80
2019-03-12T08:35:02.592Z,3.70
2019-03-12T08:36:02.545Z,3.50
2019-03-12T08:37:02.490Z,4.20
2019-03-12T08:38:02.442Z,4.20
2019-03-12T08:39:02.491Z,3.50
2019-03-12T08:40:02.342Z,4.20
2019-03-12T08:41:02.295Z,3.80
2019-03-12T08:42:02.249Z,3.60
2019-03-12T08:43:02.199Z,3.50
2019-03-12T08:44:02.158Z,4.00
2019-03-12T08:45:02.103Z,3.20
2019-03-12T08:46:02.049Z,3.70
2019-03-12T08:47:02.035Z,3.70
2019-03-12T08:48:01.952Z,4.00
2019-03-12T08:49:01.903Z,3.70
2019-03-12T08:50:01.856Z,4.00
2019-03-12T08:51:05.010Z,3.80
2019-03-12T08:52:01.756Z,4.10
2019-03-12T08:53:01.708Z,3.90
2019-03-12T08:54:01.659Z,3.50
2019-03-12T08:55:03.872Z,4.10
2019-03-12T08:56:01.571Z,3.70
2019-03-12T08:57:01.514Z,3.80
2019-03-12T08:58:01.463Z,4.20
2019-03-12T08:59:01.416Z,4.20
2019-03-12T09:00:01.367Z,3.90
2019-03-12T09:01:01.318Z,3.90
2019-03-12T09:02:02.576Z,3.90
2019-03-12T09:03:01.218Z,4.10
2019-03-12T09:04:01.172Z,4.10
2019-03-12T09:05:01.123Z,3.90
2019-03-12T09:06:01.077Z,3.90
2019-03-12T09:07:01.029Z,4.20
2019-03-12T09:08:00.976Z,4.00
2019-03-12T09:09:00.934Z,4.60
2019-03-12T09:10:00.879Z,3.80
2019-03-12T09:11:00.832Z,3.80
2019-03-12T09:12:00.786Z,4.60
2019-03-12T09:13:00.734Z,4.00
2019-03-12T09:14:00.692Z,4.40
2019-03-12T09:15:00.712Z,3.90
2019-03-12T09:16:00.592Z,3.90
2019-03-12T09:17:00.541Z,3.60
2019-03-12T09:18:00.496Z,4.20
2019-03-12T09:19:01.297Z,3.90
2019-03-12T09:20:00.422Z,3.70
2019-03-12T09:21:00.349Z,4.20
2019-03-12T09:22:00.299Z,4.30
2019-03-12T09:23:00.250Z,4.20
2019-03-12T09:24:00.204Z,3.80
2019-03-12T09:25:00.390Z,3.80
2019-03-12T09:26:00.107Z,3.90
2019-03-12T09:27:00.057Z,4.10
2019-03-12T09:28:00.007Z,4.00
2019-03-12T09:28:59.962Z,4.20
2019-03-12T09:29:59.917Z,3.60
2019-03-12T09:30:59.863Z,3.60
2019-03-12T09:31:59.816Z,4.20
2019-03-12T09:32:59.765Z,3.70
2019-03-12T09:33:59.725Z,3.60
2019-03-12T09:34:59.670Z,3.90
2019-03-12T09:35:59.622Z,3.30
2019-03-12T09:37:02.595Z,3.80
2019-03-12T09:37:59.527Z,3.60
2019-03-12T09:38:59.484Z,3.60
2019-03-12T09:39:59.431Z,3.60
2019-03-12T09:40:59.384Z,3.00
2019-03-12T09:41:59.334Z,3.60
2019-03-12T09:42:59.289Z,3.90
2019-03-12T09:43:59.238Z,3.20
2019-03-12T09:44:59.189Z,3.30
2019-03-12T09:45:59.143Z,3.50
2019-03-12T09:46:59.091Z,3.20
2019-03-12T09:47:59.045Z,3.30
2019-03-12T09:48:58.996Z,3.20
2019-03-12T09:49:58.948Z,4.10
2019-03-12T09:50:58.900Z,3.10
2019-03-12T09:51:58.854Z,3.00
2019-03-12T09:52:58.805Z,3.10
2019-03-12T09:53:58.757Z,3.00
2019-03-12T09:54:58.716Z,3.30
2019-03-12T09:55:58.662Z,3.00
2019-03-12T09:56:58.615Z,3.30
2019-03-12T09:57:58.574Z,3.00
2019-03-12T09:58:58.519Z,3.60
2019-03-12T09:59:58.473Z,4.00
2019-03-12T10:00:58.422Z,3.60
2019-03-12T10:01:59.546Z,3.50
2019-03-12T10:02:58.375Z,3.30
2019-03-12T10:03:58.279Z,3.30
2019-03-12T10:04:58.232Z,3.40
2019-03-12T10:05:58.187Z,3.20
2019-03-12T10:06:58.139Z,2.80
2019-03-12T10:07:58.087Z,3.20
2019-03-12T10:08:58.041Z,3.80
2019-03-12T10:09:57.996Z,3.00
2019-03-12T10:10:57.943Z,2.90
2019-03-12T10:11:57.893Z,3.10
2019-03-12T10:12:57.846Z,3.00
2019-03-12T10:13:57.802Z,2.90
2019-03-12T10:14:57.751Z,3.40
2019-03-12T10:15:57.709Z,3.00
2019-03-12T10:16:57.658Z,3.10
2019-03-12T10:17:57.614Z,3.20
2019-03-12T10:18:57.562Z,3.80
2019-03-12T10:19:57.514Z,2.70
2019-03-12T10:20:57.465Z,3.00
2019-03-12T10:21:57.420Z,2.60
2019-03-12T10:22:57.370Z,2.70
2019-03-12T10:23:57.323Z,2.90
2019-03-12T10:24:57.272Z,3.20
2019-03-12T10:25:57.225Z,3.00
2019-03-12T10:26:57.179Z,2.50
2019-03-12T10:27:57.227Z,2.70
2019-03-12T10:28:57.087Z,2.80
2019-03-12T10:29:57.040Z,2.70
2019-03-12T10:30:56.994Z,2.80
2019-03-12T10:31:56.940Z,2.70
2019-03-12T10:32:56.895Z,3.20
2019-03-12T10:33:56.846Z,3.20
2019-03-12T10:34:56.799Z,3.10
2019-03-12T10:35:56.794Z,2.90
2019-03-12T10:36:56.729Z,2.70
2019-03-12T10:37:56.655Z,3.50
2019-03-12T10:38:56.606Z,3.40
2019-03-12T10:39:56.560Z,2.80
2019-03-12T10:40:56.510Z,3.20
2019-03-12T10:41:56.465Z,2.90
2019-03-12T10:42:56.416Z,2.80
2019-03-12T10:43:56.371Z,2.90
2019-03-12T10:44:56.321Z,3.00
2019-03-12T10:45:56.283Z,3.20
2019-03-12T10:46:56.228Z,2.60
2019-03-12T10:47:56.179Z,3.40
2019-03-12T10:48:56.130Z,3.00
2019-03-12T10:49:56.084Z,2.60
2019-03-12T10:50:56.038Z,2.80
2019-03-12T10:51:56.002Z,2.70
2019-03-12T10:52:55.944Z,3.00
2019-03-12T10:53:55.899Z,3.00
2019-03-12T10:54:55.850Z,2.70
2019-03-12T10:55:55.799Z,2.80
2019-03-12T10:56:55.753Z,2.40
2019-03-12T10:57:55.707Z,2.70
2019-03-12T10:58:55.658Z,2.90
2019-03-12T10:59:55.615Z,3.10
2019-03-12T11:00:55.574Z,2.70
2019-03-12T11:01:55.520Z,2.60
2019-03-12T11:02:55.476Z,2.40
2019-03-12T11:03:55.422Z,3.00
2019-03-12T11:04:55.383Z,2.60
2019-03-12T11:05:55.328Z,2.40
2019-03-12T11:06:55.280Z,2.90
2019-03-12T11:07:55.237Z,2.90
2019-03-12T11:08:55.198Z,2.70
2019-03-12T11:09:55.140Z,2.80
2019-03-12T11:10:55.140Z,2.50
2019-03-12T11:11:55.044Z,2.70
2019-03-12T11:12:55.004Z,2.70
2019-03-12T11:13:54.951Z,2.50
2019-03-12T11:14:54.903Z,2.20
2019-03-12T11:15:54.884Z,2.80
2019-03-12T11:16:54.813Z,2.40
2019-03-12T11:17:54.766Z,2.40
2019-03-12T11:18:54.717Z,2.80
2019-03-12T11:19:54.673Z,2.80
2019-03-12T11:20:54.624Z,2.70
2019-03-12T11:21:54.576Z,2.60
2019-03-12T11:22:54.526Z,2.40
2019-03-12T11:23:54.482Z,2.80
2019-03-12T11:24:54.434Z,3.00
2019-03-12T11:25:54.386Z,2.90
2019-03-12T11:26:54.342Z,2.80
2019-03-12T11:27:54.291Z,2.60
2019-03-12T11:28:54.250Z,2.70
2019-03-12T11:29:54.200Z,2.70
2019-03-12T11:30:54.154Z,2.70
2019-03-12T11:31:54.105Z,2.80
2019-03-12T11:32:54.059Z,2.90
2019-03-12T11:33:54.010Z,2.70
2019-03-12T11:34:53.998Z,2.80
2019-03-12T11:35:53.918Z,2.90
2019-03-12T11:36:53.899Z,2.90
2019-03-12T11:37:53.824Z,2.50
2019-03-12T11:38:53.914Z,2.70
2019-03-12T11:39:53.735Z,2.90
2019-03-12T11:40:53.680Z,3.10
2019-03-12T11:41:53.665Z,2.60
2019-03-12T11:42:53.597Z,3.10
2019-03-12T11:43:53.574Z,2.80
2019-03-12T11:44:53.524Z,2.90
2019-03-12T11:45:53.447Z,2.70
2019-03-12T11:46:53.399Z,2.90
2019-03-12T11:47:53.355Z,3.00
2019-03-12T11:48:53.305Z,2.70
2019-03-12T11:49:53.284Z,2.80
2019-03-12T11:50:53.232Z,3.00
2019-03-12T11:51:53.165Z,2.90
2019-03-12T11:52:56.749Z,2.70
2019-03-12T11:53:53.070Z,2.90
2019-03-12T11:54:53.033Z,3.20
2019-03-12T11:55:52.976Z,2.50
2019-03-12T11:56:53.198Z,2.70
2019-03-12T11:57:52.948Z,2.90
2019-03-12T11:58:52.837Z,3.20
2019-03-12T11:59:52.788Z,2.80
2019-03-12T12:00:52.752Z,2.90
2019-03-12T12:01:52.700Z,3.00
2019-03-12T12:02:59.733Z,2.80
2019-03-12T12:03:52.607Z,2.80
2019-03-12T12:04:52.558Z,3.10
2019-03-12T12:05:52.508Z,3.00
2019-03-12T12:06:52.462Z,2.80
2019-03-12T12:07:52.428Z,2.60
2019-03-12T12:08:52.368Z,2.40
2019-03-12T12:09:52.325Z,2.70
2019-03-12T12:10:52.282Z,3.00
2019-03-12T12:11:52.229Z,3.10
2019-03-12T12:12:52.185Z,3.00
2019-03-12T12:13:52.135Z,3.00
2019-03-12T12:14:52.088Z,2.90
2019-03-12T12:15:52.042Z,2.50
2019-03-12T12:16:51.997Z,3.00
2019-03-12T12:17:51.951Z,2.60
2019-03-12T12:18:51.904Z,2.70
2019-03-12T12:20:51.811Z,3.00
2019-03-12T12:21:51.851Z,2.90
2019-03-12T12:22:51.728Z,2.70
2019-03-12T12:23:51.744Z,3.20
2019-03-12T12:24:51.631Z,2.80
2019-03-12T12:25:51.580Z,2.80
2019-03-12T12:26:51.543Z,3.00
2019-03-12T12:27:51.494Z,3.20
2019-03-12T12:28:51.448Z,3.00
2019-03-12T12:29:51.398Z,2.50
2019-03-12T12:30:51.353Z,2.70
2019-03-12T12:31:51.303Z,2.70
2019-03-12T12:32:51.257Z,2.90
2019-03-12T12:33:51.214Z,3.00
2019-03-12T12:34:51.165Z,2.90
2019-03-12T12:35:51.121Z,2.90
2019-03-12T12:36:51.077Z,2.60
2019-03-12T12:37:51.027Z,3.00
2019-03-12T12:38:50.984Z,3.10
2019-03-12T12:39:50.938Z,3.00
2019-03-12T12:40:50.890Z,3.10
2019-03-12T12:41:50.846Z,2.50
2019-03-12T12:42:50.804Z,3.00
2019-03-12T12:43:50.753Z,3.10
2019-03-12T12:44:50.709Z,3.10
2019-03-12T12:45:50.660Z,2.90
2019-03-12T12:46:50.616Z,2.70
2019-03-12T12:47:50.570Z,2.70
2019-03-12T12:48:53.149Z,2.40
2019-03-12T12:49:50.482Z,2.90
2019-03-12T12:51:02.511Z,2.50
2019-03-12T12:51:50.392Z,2.50
2019-03-12T12:52:50.346Z,2.40
2019-03-12T12:53:50.296Z,2.40
2019-03-12T12:54:50.251Z,2.50
2019-03-12T12:55:50.203Z,2.50
2019-03-12T12:56:50.160Z,2.60
2019-03-12T12:57:50.112Z,2.60
2019-03-12T12:58:50.074Z,2.60
2019-03-12T12:59:50.021Z,2.50
2019-03-12T13:00:49.975Z,2.60
2019-03-12T13:01:49.929Z,2.70
2019-03-12T13:02:49.888Z,2.50
2019-03-12T13:03:49.840Z,2.80
2019-03-12T13:04:49.792Z,2.90
2019-03-12T13:05:49.745Z,2.60
2019-03-12T13:06:49.702Z,2.60
2019-03-12T13:07:49.731Z,2.10
2019-03-12T13:08:49.609Z,2.30
2019-03-12T13:09:49.567Z,2.30
2019-03-12T13:10:49.516Z,2.90
2019-03-12T13:11:49.473Z,2.10
2019-03-12T13:12:49.426Z,2.60
2019-03-12T13:13:49.380Z,2.40
2019-03-12T13:14:49.335Z,2.30
2019-03-12T13:15:49.301Z,2.50
2019-03-12T13:16:49.247Z,2.40
2019-03-12T13:17:49.205Z,2.00
2019-03-12T13:18:51.903Z,2.70